»·PEaware :: UAL401 KIAH-KSFO

UAL401 :: KIAH-KSFO

FLIGHT INFORMATION

Flight Status: Arrived
Operator:
United Airlines
More flights by this operator :: More flights under this callsign
Pilot: Ben L. (6391)
Aircraft: AIRBUS A330-200
(A332)
More flights by this aircraft type
Origin: KIAH G Bush Intercontinental/Houst
United States
Destination: KSFO San Francisco Intl
United States
More flights between these airports :: More routes between these airports
Route: +BNDTO4 CRGER ELP Q4 BOILE AVE SERFR SERFR1
File this flight plan on PilotEdge
Remarks:
Altitude:
(Current/Filed)
36,000ft
Speed:
(Current/Filed)
470kts
Departed: 12-Aug-15 02:39 PM
Arrived: 12-Aug-15 06:01 PM
Distance/Time
Traveled:
1418nm/3:22
Distance/Time
To Go:
Arrived

Flight Plot

Page will automatically refresh every two minutes.


Map Options




Map Legend


Flown Route
Filed Route
Departure Airport
Arrival Airport
Navaid (VOR, NDB)
Fix

Horizontal Profiles

Position Reports

Time Latitude Longitude Heading Altitude Ground
Speed
12-Aug-15 14:27 29.988365 -95.333102 178 110ft 0kts
12-Aug-15 14:28 29.988365 -95.333102 178 110ft 0kts
12-Aug-15 14:29 29.988365 -95.333102 178 110ft 0kts
12-Aug-15 14:30 29.988365 -95.333102 178 110ft 0kts
12-Aug-15 14:32 29.988365 -95.333102 178 110ft 0kts
12-Aug-15 14:33 29.988365 -95.333102 178 110ft 0kts
12-Aug-15 14:34 29.988365 -95.333102 178 110ft 0kts
12-Aug-15 14:35 29.988365 -95.333102 178 110ft 0kts
12-Aug-15 14:36 29.988365 -95.333102 178 110ft 0kts
12-Aug-15 14:37 29.988514 -95.333107 178 110ft 0kts
12-Aug-15 14:38 29.989001 -95.333059 221 110ft 0kts
12-Aug-15 14:39 29.989092 -95.332853 264 110ft 0kts
12-Aug-15 14:40 29.989092 -95.332853 264 110ft 0kts
12-Aug-15 14:41 29.989092 -95.332853 264 110ft 0kts
12-Aug-15 14:42 29.989154 -95.333550 276 110ft 8kts
12-Aug-15 14:43 29.989668 -95.337158 356 110ft 4kts
12-Aug-15 14:44 29.990670 -95.337392 305 110ft 7kts
12-Aug-15 14:45 29.990777 -95.342804 270 110ft 29kts
12-Aug-15 14:46 29.990804 -95.352265 271 110ft 23kts
12-Aug-15 14:47 29.990993 -95.358028 273 110ft 16kts
12-Aug-15 14:48 29.988204 -95.360331 239 110ft 7kts
12-Aug-15 14:49 29.987061 -95.360932 153 110ft 0kts
12-Aug-15 14:50 29.964062 -95.346580 150 327ft 180kts
12-Aug-15 14:51 29.929644 -95.359807 283 2286ft 176kts
12-Aug-15 14:52 29.949078 -95.413405 289 3546ft 205kts
12-Aug-15 14:53 29.954423 -95.489122 270 4939ft 274kts
12-Aug-15 14:54 29.967713 -95.577495 283 7324ft 287kts
12-Aug-15 14:55 29.984225 -95.669153 288 9948ft 299kts
12-Aug-15 14:56 30.006700 -95.770737 287 10986ft 367kts
12-Aug-15 14:57 30.032865 -95.890243 287 13288ft 398kts
12-Aug-15 14:58 30.060049 -96.014842 286 16002ft 412kts
12-Aug-15 14:59 30.083297 -96.145053 281 18532ft 426kts
12-Aug-15 15:00 30.104447 -96.281475 280 20704ft 444kts
12-Aug-15 15:01 30.126209 -96.423577 280 22694ft 462kts
12-Aug-15 15:02 30.148378 -96.569357 280 24597ft 476kts
12-Aug-15 15:03 30.171271 -96.720992 280 26425ft 489kts
12-Aug-15 15:04 30.194691 -96.877435 280 28042ft 502kts
12-Aug-15 15:05 30.218497 -97.037853 280 29909ft 506kts
12-Aug-15 15:06 30.242122 -97.196627 279 31955ft 500kts
12-Aug-15 15:07 30.265279 -97.353043 280 33850ft 491kts
12-Aug-15 15:08 30.288062 -97.508243 280 35288ft 487kts
12-Aug-15 15:09 30.310390 -97.661818 280 36052ft 482kts
12-Aug-15 15:10 30.337795 -97.811927 284 36041ft 484kts
12-Aug-15 15:11 30.369478 -97.962059 284 36071ft 484kts
12-Aug-15 15:12 30.401147 -98.112843 284 36079ft 483kts
12-Aug-15 15:13 30.432989 -98.263945 284 36073ft 484kts
12-Aug-15 15:14 30.464065 -98.415310 283 36071ft 484kts
12-Aug-15 15:15 30.495109 -98.567441 283 36071ft 484kts
12-Aug-15 15:16 30.525951 -98.719408 283 36093ft 484kts
12-Aug-15 15:17 30.556391 -98.870146 283 36100ft 484kts
12-Aug-15 15:18 30.587001 -99.022437 283 36102ft 484kts
12-Aug-15 15:19 30.617307 -99.173267 283 36101ft 484kts
12-Aug-15 15:19 30.642539 -99.300434 283 36101ft 484kts
12-Aug-15 15:20 30.672433 -99.452364 283 36101ft 484kts
12-Aug-15 15:21 30.702316 -99.605249 283 36101ft 484kts
12-Aug-15 15:22 30.731890 -99.757558 283 36101ft 484kts
12-Aug-15 15:23 30.761330 -99.910186 283 36102ft 483kts
12-Aug-15 15:24 30.790522 -100.062555 283 36101ft 483kts
12-Aug-15 15:25 30.819785 -100.214729 282 36178ft 483kts
12-Aug-15 15:26 30.848706 -100.367543 282 36172ft 483kts
12-Aug-15 15:27 30.877406 -100.520413 282 36171ft 483kts
12-Aug-15 15:28 30.905897 -100.673218 282 36172ft 483kts
12-Aug-15 15:29 30.934181 -100.825948 282 36170ft 483kts
12-Aug-15 15:31 30.962325 -100.979019 282 36191ft 483kts
12-Aug-15 15:32 30.990359 -101.132054 282 36190ft 483kts
12-Aug-15 15:33 31.018352 -101.285112 281 36191ft 485kts
12-Aug-15 15:34 31.046030 -101.438826 281 36190ft 485kts
12-Aug-15 15:35 31.073616 -101.593163 281 36190ft 485kts
12-Aug-15 15:36 31.100924 -101.747065 281 36191ft 485kts
12-Aug-15 15:37 31.128133 -101.901522 281 36191ft 486kts
12-Aug-15 15:38 31.155086 -102.055676 281 36177ft 486kts
12-Aug-15 15:39 31.182170 -102.209995 281 36212ft 486kts
12-Aug-15 15:40 31.208872 -102.364756 280 36211ft 487kts
12-Aug-15 15:41 31.235272 -102.519156 280 36212ft 487kts
12-Aug-15 15:42 31.261567 -102.674119 280 36212ft 486kts
12-Aug-15 15:43 31.285641 -102.817036 280 36211ft 487kts
12-Aug-15 15:44 31.311623 -102.972422 280 36212ft 487kts
12-Aug-15 15:45 31.337400 -103.127397 280 36161ft 486kts
12-Aug-15 15:46 31.363266 -103.282909 280 36152ft 487kts
12-Aug-15 15:47 31.388725 -103.438737 280 36151ft 487kts
12-Aug-15 15:48 31.413893 -103.594071 280 36152ft 487kts
12-Aug-15 15:49 31.439008 -103.750327 280 36151ft 487kts
12-Aug-15 15:50 31.463877 -103.906313 280 36151ft 487kts
12-Aug-15 15:51 31.488565 -104.062429 280 36151ft 487kts
12-Aug-15 15:52 31.513285 -104.218104 280 36151ft 487kts
12-Aug-15 15:53 31.537573 -104.374035 280 36377ft 487kts
12-Aug-15 15:54 31.561732 -104.529932 280 36398ft 487kts
12-Aug-15 15:55 31.585712 -104.686535 280 36399ft 487kts
12-Aug-15 15:56 31.609418 -104.842815 279 36403ft 487kts
12-Aug-15 15:57 31.632873 -104.998828 279 36405ft 487kts
12-Aug-15 15:58 31.656409 -105.155251 279 36402ft 487kts
12-Aug-15 15:59 31.679677 -105.311809 279 36402ft 485kts
12-Aug-15 16:00 31.702489 -105.467535 279 36401ft 485kts
12-Aug-15 16:01 31.725189 -105.623882 279 36276ft 485kts
12-Aug-15 16:02 31.747775 -105.780828 278 36244ft 486kts
12-Aug-15 16:03 31.769940 -105.936232 278 36240ft 482kts
12-Aug-15 16:04 31.791904 -106.091674 278 36227ft 482kts
12-Aug-15 16:05 31.813947 -106.246674 278 36230ft 482kts
12-Aug-15 16:06 31.833983 -106.402130 277 36232ft 480kts
12-Aug-15 16:07 31.856678 -106.557332 278 36215ft 480kts
12-Aug-15 16:08 31.879214 -106.711797 278 36221ft 480kts
12-Aug-15 16:09 31.901565 -106.866291 277 36222ft 478kts
12-Aug-15 16:10 31.923635 -107.020277 277 36285ft 478kts
12-Aug-15 16:11 31.945822 -107.174413 277 36281ft 478kts
12-Aug-15 16:12 31.967619 -107.328697 277 36281ft 475kts
12-Aug-15 16:13 31.988934 -107.481460 277 36252ft 475kts
12-Aug-15 16:14 32.010198 -107.635238 277 36251ft 475kts
12-Aug-15 16:15 32.031179 -107.788286 276 36251ft 473kts
12-Aug-15 16:16 32.051927 -107.941218 276 36252ft 473kts
12-Aug-15 16:17 32.072484 -108.094077 276 36251ft 473kts
12-Aug-15 16:17 32.089732 -108.220997 276 36251ft 473kts
12-Aug-15 16:19 32.113281 -108.399034 275 36229ft 471kts
12-Aug-15 16:20 32.133259 -108.551890 275 36231ft 471kts
12-Aug-15 16:21 32.152969 -108.704141 275 36232ft 471kts
12-Aug-15 16:22 32.172495 -108.856449 275 36232ft 469kts
12-Aug-15 16:22 32.188652 -108.983617 275 36231ft 469kts
12-Aug-15 16:23 32.207810 -109.134881 275 36232ft 469kts
12-Aug-15 16:24 32.226998 -109.286882 275 36231ft 468kts
12-Aug-15 16:25 32.245785 -109.439046 275 36232ft 469kts
12-Aug-15 16:26 32.264370 -109.591180 275 36087ft 468kts
12-Aug-15 16:27 32.282734 -109.743042 275 36090ft 467kts
12-Aug-15 16:28 32.308089 -109.893040 285 36087ft 472kts
12-Aug-15 16:29 32.348859 -110.040700 286 36091ft 472kts
12-Aug-15 16:31 32.390355 -110.187447 285 36101ft 472kts
12-Aug-15 16:32 32.431416 -110.334213 285 36101ft 472kts
12-Aug-15 16:33 32.474191 -110.479158 286 36102ft 472kts
12-Aug-15 16:34 32.517559 -110.625721 286 36101ft 472kts
12-Aug-15 16:35 32.560227 -110.770430 287 36101ft 472kts
12-Aug-15 16:36 32.603549 -110.917936 286 36047ft 473kts
12-Aug-15 16:37 32.646490 -111.065183 286 36049ft 473kts
12-Aug-15 16:38 32.689576 -111.212544 286 36051ft 473kts
12-Aug-15 16:39 32.732388 -111.360689 285 35970ft 475kts
12-Aug-15 16:40 32.774922 -111.508742 285 35971ft 472kts
12-Aug-15 16:41 32.816665 -111.654786 285 35978ft 472kts
12-Aug-15 16:42 32.858655 -111.802389 285 35969ft 471kts
12-Aug-15 16:43 32.900421 -111.950022 285 35971ft 472kts
12-Aug-15 16:44 32.942094 -112.098049 285 35971ft 472kts
12-Aug-15 16:45 32.983972 -112.246331 284 35971ft 472kts
12-Aug-15 16:46 33.025019 -112.393584 284 35894ft 472kts
12-Aug-15 16:47 33.065579 -112.540639 284 35893ft 472kts
12-Aug-15 16:48 33.108636 -112.686410 297 35884ft 477kts
12-Aug-15 16:49 33.200526 -112.800757 312 35922ft 485kts
12-Aug-15 16:50 33.259132 -112.937198 277 35932ft 462kts
12-Aug-15 16:51 33.280954 -113.088565 275 35931ft 462kts
12-Aug-15 16:52 33.302568 -113.239654 275 36178ft 445kts
12-Aug-15 16:53 33.321534 -113.371119 273 37560ft 424kts
12-Aug-15 16:54 33.338694 -113.518843 281 35926ft 465kts
12-Aug-15 16:55 33.379580 -113.666191 284 35930ft 468kts
12-Aug-15 16:56 33.414260 -113.815144 278 35882ft 464kts
12-Aug-15 16:57 33.443391 -113.965444 278 35881ft 464kts
12-Aug-15 16:58 33.472296 -114.115917 278 35881ft 464kts
12-Aug-15 16:59 33.501201 -114.265760 277 35882ft 464kts
12-Aug-15 17:00 33.529387 -114.414633 277 35882ft 464kts
12-Aug-15 17:01 33.564652 -114.564516 282 35882ft 467kts
12-Aug-15 17:02 33.603766 -114.712837 282 35866ft 468kts
12-Aug-15 17:03 33.642849 -114.861856 282 35879ft 468kts
12-Aug-15 17:04 33.681675 -115.010735 282 35880ft 468kts
12-Aug-15 17:05 33.718863 -115.153166 282 35881ft 468kts
12-Aug-15 17:06 33.757515 -115.302446 282 35880ft 467kts
12-Aug-15 17:07 33.795805 -115.451663 282 35880ft 467kts
12-Aug-15 17:08 33.833781 -115.600507 282 35836ft 467kts
12-Aug-15 17:09 33.871689 -115.749923 282 35840ft 467kts
12-Aug-15 17:10 33.909455 -115.899630 282 35833ft 467kts
12-Aug-15 17:11 33.946855 -116.048731 282 35830ft 467kts
12-Aug-15 17:12 33.984437 -116.198078 281 36047ft 467kts
12-Aug-15 17:13 34.021019 -116.345373 281 35912ft 467kts
12-Aug-15 17:14 34.057493 -116.493290 281 35903ft 467kts
12-Aug-15 17:15 34.094191 -116.642966 281 36060ft 466kts
12-Aug-15 17:16 34.130707 -116.792755 281 36362ft 467kts
12-Aug-15 17:17 34.167131 -116.943071 280 36400ft 467kts
12-Aug-15 17:18 34.203316 -117.093280 280 36396ft 467kts
12-Aug-15 17:18 34.232040 -117.211749 280 36135ft 467kts
12-Aug-15 17:19 34.268044 -117.362613 280 35982ft 466kts
12-Aug-15 17:20 34.303771 -117.513398 280 35980ft 466kts
12-Aug-15 17:21 34.339297 -117.664246 280 36021ft 466kts
12-Aug-15 17:22 34.374508 -117.814645 280 36109ft 464kts
12-Aug-15 17:23 34.409167 -117.963633 280 36097ft 464kts
12-Aug-15 17:24 34.471747 -118.101643 301 36073ft 482kts
12-Aug-15 17:25 34.553264 -118.229215 302 36073ft 482kts
12-Aug-15 17:26 34.635207 -118.357093 301 36071ft 482kts
12-Aug-15 17:27 34.717145 -118.485632 301 36109ft 482kts
12-Aug-15 17:28 34.798025 -118.612976 301 36247ft 481kts
12-Aug-15 17:30 34.875661 -118.735650 301 36251ft 481kts
12-Aug-15 17:31 34.949116 -118.852107 301 36250ft 481kts
12-Aug-15 17:32 35.029102 -118.979363 301 36251ft 481kts
12-Aug-15 17:33 35.107888 -119.105158 300 36113ft 481kts
12-Aug-15 17:34 35.186863 -119.231051 300 35996ft 481kts
12-Aug-15 17:35 35.262968 -119.353396 299 35992ft 479kts
12-Aug-15 17:36 35.342474 -119.481723 299 35994ft 479kts
12-Aug-15 17:37 35.422914 -119.612005 299 35990ft 479kts
12-Aug-15 17:38 35.502940 -119.742126 299 35993ft 479kts
12-Aug-15 17:39 35.582116 -119.871172 300 36012ft 479kts
12-Aug-15 17:40 35.655045 -120.006196 282 36065ft 462kts
12-Aug-15 17:41 35.700613 -120.152863 283 36040ft 462kts
12-Aug-15 17:42 35.744883 -120.297304 283 36039ft 464kts
12-Aug-15 17:43 35.787333 -120.436770 283 36044ft 462kts
12-Aug-15 17:44 35.829484 -120.576101 283 36040ft 462kts
12-Aug-15 17:45 35.870492 -120.712205 283 36040ft 459kts
12-Aug-15 17:46 35.914143 -120.857262 284 36039ft 464kts
12-Aug-15 17:47 35.956857 -120.998907 284 36041ft 464kts
12-Aug-15 17:48 36.001429 -121.144423 284 36040ft 464kts
12-Aug-15 17:49 36.046821 -121.293309 284 33696ft 471kts
12-Aug-15 17:50 36.131349 -121.412241 321 31628ft 476kts
12-Aug-15 17:51 36.240824 -121.499666 323 29595ft 460kts
12-Aug-15 17:52 36.343757 -121.580222 323 27552ft 448kts
12-Aug-15 17:53 36.446365 -121.660723 323 25513ft 436kts
12-Aug-15 17:54 36.546551 -121.739795 323 23501ft 424kts
12-Aug-15 17:55 36.633794 -121.808772 322 21691ft 414kts
12-Aug-15 17:56 36.726463 -121.882240 325 19317ft 402kts
12-Aug-15 17:57 36.820949 -121.916234 344 17063ft 399kts
12-Aug-15 17:58 36.913482 -121.942401 345 15016ft 387kts
12-Aug-15 17:59 37.005752 -121.974412 341 12930ft 372kts
12-Aug-15 18:00 37.101027 -122.011701 341 10769ft 357kts
12-Aug-15 18:01 37.189068 -122.046084 342 9432ft 312kts
12-Aug-15 18:02 37.268806 -122.077319 341 7230ft 308kts
12-Aug-15 18:03 37.338316 -122.104545 339 5820ft 280kts
12-Aug-15 18:04 37.401601 -122.129167 337 4745ft 247kts
12-Aug-15 18:05 37.455675 -122.150450 337 4054ft 234kts
12-Aug-15 18:06 37.513855 -122.167702 341 3192ft 216kts
12-Aug-15 18:07 37.549579 -122.208492 287 2934ft 180kts
12-Aug-15 18:08 37.567258 -122.252484 291 1949ft 160kts
12-Aug-15 18:09 37.586187 -122.297530 291 1113ft 132kts
12-Aug-15 18:10 37.601763 -122.334698 292 475ft 127kts
12-Aug-15 18:11 37.615130 -122.366753 300 26ft 56kts
12-Aug-15 18:12 37.616905 -122.371903 232 26ft 9kts
12-Aug-15 18:13 37.616555 -122.372269 209 26ft 0kts
12-Aug-15 18:14 37.616555 -122.372269 209 26ft 0kts
12-Aug-15 18:15 37.616555 -122.372269 209 26ft 0kts
12-Aug-15 18:16 37.616354 -122.375018 276 26ft 27kts
12-Aug-15 18:17 37.616225 -122.379838 196 26ft 3kts
12-Aug-15 18:18 37.613535 -122.382559 284 26ft 7kts
12-Aug-15 18:18 37.614111 -122.382877 20 26ft 5kts
12-Aug-15 18:19 37.614307 -122.382771 23 26ft 0kts
12-Aug-15 18:20 37.614307 -122.382771 23 26ft 0kts
12-Aug-15 18:21 37.614307 -122.382771 23 26ft 0kts
12-Aug-15 18:22 37.614307 -122.382771 23 26ft 0kts

Navigation Log

Ident Type
Flight plan parsing failed, navigation log unavailable